Time;durP1;ratioP1;P1;durP2;ratioP2;P2;SDS_P1;SDS_P2;PMS_P1;PMS_P2;Temp;Humidity;BMP_temperature;BMP_pressure;BME280_temperature;BME280_humidity;BME280_pressure;Samples;Min_cycle;Max_cycle;Signal;HPM_P1;HPM_P2
2023/04/06 00:00:21;;;;;;;9.57;7.27;;;;;;;1.03;48.39;99224.59;5092249;28;42111;-75
2023/04/06 00:02:49;;;;;;;9.80;6.87;;;;;;;0.99;48.45;99220.31;5075374;28;39096;-75
2023/04/06 00:05:17;;;;;;;9.03;7.07;;;;;;;0.96;48.56;99217.78;5092019;28;42287;-75
2023/04/06 00:07:45;;;;;;;10.57;6.70;;;;;;;0.92;48.42;99221.31;5092445;28;42680;-76
2023/04/06 00:10:15;;;;;;;9.13;6.77;;;;;;;0.90;48.73;99217.88;5091856;28;43277;-75
2023/04/06 00:12:43;;;;;;;8.43;7.30;;;;;;;0.87;48.62;99214.47;5091148;28;41321;-74
2023/04/06 00:15:11;;;;;;;10.77;7.60;;;;;;;0.82;48.70;99208.50;5074655;28;41954;-74
2023/04/06 00:17:39;;;;;;;10.13;7.63;;;;;;;0.81;48.87;99212.84;5092167;28;41779;-74
2023/04/06 00:20:08;;;;;;;8.67;7.23;;;;;;;0.77;48.90;99199.88;5074810;28;41545;-75
2023/04/06 00:22:36;;;;;;;9.60;6.57;;;;;;;0.78;49.08;99210.28;5093331;28;40014;-75
2023/04/06 00:25:05;;;;;;;11.03;8.03;;;;;;;0.75;49.08;99215.53;5074744;28;40482;-75
2023/04/06 00:27:34;;;;;;;8.97;7.17;;;;;;;0.72;48.90;99207.78;5091776;28;42991;-75
2023/04/06 00:30:02;;;;;;;7.80;6.40;;;;;;;0.55;49.16;99179.41;5091525;28;42298;-74
2023/04/06 00:32:30;;;;;;;8.47;6.40;;;;;;;0.70;49.51;99204.34;5093067;28;40156;-75
2023/04/06 00:34:59;;;;;;;15.77;11.20;;;;;;;0.66;49.88;99193.09;5091392;28;42071;-75
2023/04/06 00:37:27;;;;;;;10.27;7.83;;;;;;;0.65;49.69;99200.94;5074858;28;41664;-75
2023/04/06 00:39:55;;;;;;;10.43;7.63;;;;;;;0.63;49.82;99202.72;5091489;28;41262;-75
2023/04/06 00:42:26;;;;;;;9.87;6.87;;;;;;;0.60;49.81;99190.63;5091810;28;40056;-75
2023/04/06 00:44:56;;;;;;;9.57;7.33;;;;;;;0.58;49.92;99200.22;5074502;28;40890;-75
2023/04/06 00:47:26;;;;;;;9.63;7.53;;;;;;;0.57;49.76;99202.84;5091580;28;43197;-75
2023/04/06 00:49:55;;;;;;;9.50;7.80;;;;;;;0.55;50.10;99194.19;5074435;28;41109;-74
2023/04/06 00:52:23;;;;;;;8.20;6.70;;;;;;;0.52;49.91;99197.69;5074174;28;39811;-75
2023/04/06 00:54:51;;;;;;;11.77;7.90;;;;;;;0.50;50.13;99194.25;5074290;28;41707;-74
2023/04/06 00:57:21;;;;;;;9.17;7.70;;;;;;;0.48;50.13;99195.19;5074618;28;41972;-75
2023/04/06 00:59:57;;;;;;;9.57;7.30;;;;;;;0.45;50.16;99188.28;5074212;28;41000;-75
2023/04/06 01:02:25;;;;;;;7.43;6.20;;;;;;;0.31;50.19;99172.88;5074559;28;41210;-75
2023/04/06 01:04:55;;;;;;;9.30;7.30;;;;;;;0.41;50.52;99190.94;5091190;28;41757;-75
2023/04/06 01:07:36;;;;;;;9.83;7.20;;;;;;;0.25;50.33;99159.94;5074966;28;41824;-76
2023/04/06 01:10:12;;;;;;;9.57;6.97;;;;;;;0.37;50.41;99186.69;5091238;28;42643;-76
2023/04/06 01:12:40;;;;;;;8.57;6.43;;;;;;;0.35;50.28;99192.78;5074776;28;38861;-75
2023/04/06 01:15:18;;;;;;;9.60;6.53;;;;;;;0.34;50.57;99191.06;5073813;28;42545;-75
2023/04/06 01:17:52;;;;;;;7.00;6.20;;;;;;;0.30;50.38;99194.59;5088098;28;42766;-75
2023/04/06 01:20:20;;;;;;;8.27;6.53;;;;;;;0.27;50.59;99183.34;5090910;28;42258;-75
2023/04/06 01:22:50;;;;;;;10.47;7.10;;;;;;;0.23;50.81;99179.94;5090988;28;41007;-75
2023/04/06 01:25:18;;;;;;;8.17;6.03;;;;;;;0.21;50.80;99179.09;5090762;28;41800;-75
2023/04/06 01:28:08;;;;;;;8.43;6.97;;;;;;;0.08;50.76;99161.09;5074131;28;42580;-75
2023/04/06 01:30:55;;;;;;;7.73;6.20;;;;;;;0.15;50.96;99176.59;5091193;28;41296;-74
2023/04/06 01:33:43;;;;;;;9.93;6.90;;;;;;;0.13;51.06;99172.28;5089937;28;39079;-75
2023/04/06 01:36:15;;;;;;;7.00;5.90;;;;;;;0.12;52.47;99163.63;5074452;28;40496;-75
2023/04/06 01:38:46;;;;;;;10.40;7.27;;;;;;;0.11;53.01;99155.84;5073834;28;41918;-75
2023/04/06 01:41:17;;;;;;;12.03;8.23;;;;;;;0.10;52.93;99152.38;5090936;28;42349;-75
2023/04/06 01:43:54;;;;;;;11.50;8.53;;;;;;;-0.17;53.68;99108.56;5089223;28;40795;-76
2023/04/06 01:46:23;;;;;;;10.07;7.83;;;;;;;0.11;53.30;99150.63;5074089;28;40792;-75
2023/04/06 01:48:52;;;;;;;11.57;7.40;;;;;;;0.09;52.92;99155.88;5090589;28;43423;-75
2023/04/06 01:51:41;;;;;;;10.17;7.50;;;;;;;0.07;52.65;99156.78;5073868;28;41159;-75
2023/04/06 01:54:14;;;;;;;9.73;7.13;;;;;;;0.04;52.45;99155.06;5074118;28;40875;-75
2023/04/06 01:57:05;;;;;;;10.37;7.30;;;;;;;0.00;52.47;99159.44;5099956;28;42344;-75
2023/04/06 01:59:39;;;;;;;10.20;7.17;;;;;;;-0.01;52.27;99154.28;5088791;28;42877;-75
2023/04/06 02:02:14;;;;;;;9.20;6.73;;;;;;;-0.04;52.51;99147.38;5073581;28;42437;-75
2023/04/06 02:04:50;;;;;;;9.77;7.50;;;;;;;-0.07;52.73;99149.16;5073712;28;38984;-75
2023/04/06 02:07:18;;;;;;;8.87;7.20;;;;;;;-0.08;52.65;99150.91;5073476;28;40116;-74
2023/04/06 02:09:48;;;;;;;9.70;7.30;;;;;;;-0.12;52.82;99140.56;5073093;28;42986;-74
2023/04/06 02:12:24;;;;;;;9.63;6.77;;;;;;;-0.13;52.82;99149.28;5073510;28;42430;-74
2023/04/06 02:14:52;;;;;;;8.50;7.23;;;;;;;-0.15;52.63;99145.84;5073107;28;38695;-74
2023/04/06 02:17:20;;;;;;;9.43;6.73;;;;;;;-0.19;52.60;99149.34;5090019;28;41766;-75
2023/04/06 02:19:48;;;;;;;9.50;7.63;;;;;;;-0.21;52.63;99145.91;5073080;28;42044;-75
2023/04/06 02:22:16;;;;;;;7.17;6.17;;;;;;;-0.27;52.73;99138.19;5090349;28;43703;-75
2023/04/06 02:24:44;;;;;;;9.97;7.10;;;;;;;-0.27;52.71;99153.81;5073285;28;38932;-75
2023/04/06 02:27:14;;;;;;;9.57;7.60;;;;;;;-0.29;52.92;99145.16;5090371;28;41447;-75
2023/04/06 02:29:42;;;;;;;9.00;7.37;;;;;;;-0.31;52.82;99146.94;5089810;28;42567;-74
2023/04/06 02:32:10;;;;;;;9.63;7.40;;;;;;;-0.32;52.91;99150.41;5073221;28;41205;-75
2023/04/06 02:34:38;;;;;;;8.50;6.77;;;;;;;-0.39;53.12;99140.09;5073182;28;38563;-75
2023/04/06 02:37:06;;;;;;;8.93;6.50;;;;;;;-0.37;52.98;99148.72;5076682;28;41799;-74
2023/04/06 02:39:34;;;;;;;9.37;6.60;;;;;;;-0.38;53.03;99149.63;5093090;28;42808;-74
2023/04/06 02:42:03;;;;;;;10.17;6.90;;;;;;;-0.39;53.29;99140.09;5075760;28;41455;-76
2023/04/06 02:44:33;;;;;;;9.47;7.43;;;;;;;-0.39;56.10;99127.09;5076327;28;39908;-75
2023/04/06 02:47:01;;;;;;;11.23;8.63;;;;;;;-0.36;55.73;99124.41;5093641;28;42656;-74
2023/04/06 02:49:29;;;;;;;9.57;7.67;;;;;;;-0.33;55.34;99138.28;5076388;28;41909;-75
2023/04/06 02:51:59;;;;;;;11.80;8.50;;;;;;;-0.33;55.58;99133.06;5076764;28;42289;-75
2023/04/06 02:54:34;;;;;;;12.40;8.73;;;;;;;-0.55;56.17;99091.75;5076732;28;38915;-76
2023/04/06 02:57:03;;;;;;;10.70;8.57;;;;;;;-0.32;56.04;99127.00;5093342;28;42048;-75
2023/04/06 02:59:42;;;;;;;11.70;9.10;;;;;;;-0.33;55.38;99130.47;5093930;28;43691;-77
2023/04/06 03:02:32;;;;;;;9.57;8.07;;;;;;;-0.34;55.07;99137.41;5092557;28;41541;-75
2023/04/06 03:05:08;;;;;;;10.40;7.90;;;;;;;-0.36;55.10;99136.56;5076645;28;40029;-75
2023/04/06 03:07:40;;;;;;;10.17;7.70;;;;;;;-0.39;54.88;99140.09;5089791;28;41935;-76
2023/04/06 03:10:12;;;;;;;9.57;7.47;;;;;;;-0.41;54.68;99141.84;5076021;28;41830;-75
2023/04/06 03:12:41;;;;;;;8.80;7.33;;;;;;;-0.43;54.71;99140.16;5076016;28;41282;-74
2023/04/06 03:15:11;;;;;;;8.30;6.67;;;;;;;-0.49;54.65;99135.88;5093204;28;39932;-76
2023/04/06 03:17:43;;;;;;;9.37;7.50;;;;;;;-0.48;54.65;99145.41;5075785;28;40680;-75
2023/04/06 03:20:19;;;;;;;9.50;7.30;;;;;;;-0.52;54.62;99146.34;5089973;28;43720;-75
2023/04/06 03:22:47;;;;;;;10.67;7.10;;;;;;;-0.54;54.46;99144.66;5075950;28;41142;-74
2023/04/06 03:25:17;;;;;;;7.93;6.43;;;;;;;-0.57;54.55;99158.53;5076060;28;38955;-74
2023/04/06 03:27:46;;;;;;;9.17;6.57;;;;;;;-0.59;55.00;99151.63;5093002;28;41820;-75
2023/04/06 03:30:19;;;;;;;9.70;7.47;;;;;;;-0.60;55.28;99148.19;5092680;28;43587;-74
2023/04/06 03:32:48;;;;;;;11.27;8.10;;;;;;;-0.77;55.27;99119.81;5075883;28;41165;-75
2023/04/06 03:35:17;;;;;;;12.97;8.70;;;;;;;-0.72;55.17;99124.94;5075782;28;42199;-74
2023/04/06 03:37:45;;;;;;;8.37;6.73;;;;;;;-0.64;54.95;99149.13;5092977;28;42683;-75
2023/04/06 03:40:13;;;;;;;8.67;6.87;;;;;;;-0.67;55.13;99154.34;5092658;28;42867;-75
2023/04/06 03:42:41;;;;;;;9.23;7.10;;;;;;;-0.70;55.01;99146.59;5092763;28;42314;-75
2023/04/06 03:45:13;;;;;;;7.50;6.13;;;;;;;-0.73;54.87;99147.47;5075880;28;40527;-74
2023/04/06 03:47:49;;;;;;;11.00;7.23;;;;;;;-0.77;55.14;99158.81;5075985;28;40355;-75
2023/04/06 03:50:17;;;;;;;10.60;7.80;;;;;;;-0.79;54.96;99154.50;5092613;28;45077;-75
2023/04/06 03:52:46;;;;;;;10.03;6.87;;;;;;;-0.85;55.11;99155.44;5075810;28;40942;-75
2023/04/06 03:55:14;;;;;;;10.07;8.17;;;;;;;-0.82;55.25;99159.72;5075644;28;40031;-75
2023/04/06 03:57:42;;;;;;;11.20;7.00;;;;;;;-0.83;55.46;99158.88;5075160;28;41422;-75
2023/04/06 04:00:11;;;;;;;8.30;6.83;;;;;;;-0.83;55.53;99158.00;5074663;28;41692;-75
2023/04/06 04:02:42;;;;;;;10.70;7.53;;;;;;;-0.89;55.76;99155.50;5089377;28;42349;-75
2023/04/06 04:05:11;;;;;;;9.27;7.53;;;;;;;-0.85;55.66;99162.34;5075120;28;38900;-75
2023/04/06 04:07:40;;;;;;;7.57;6.33;;;;;;;-0.87;55.49;99167.59;5092458;28;42657;-74
2023/04/06 04:10:10;;;;;;;10.27;6.97;;;;;;;-0.89;55.73;99166.75;5075067;28;41723;-74
2023/04/06 04:12:37;;;;;;;9.73;6.87;;;;;;;-0.89;55.70;99168.50;5075289;28;41368;-75
2023/04/06 04:15:06;;;;;;;9.83;7.00;;;;;;;-0.90;55.78;99166.78;5074888;28;39602;-75
2023/04/06 04:17:34;;;;;;;9.37;7.67;;;;;;;-0.90;55.84;99169.38;5092089;28;42655;-75
2023/04/06 04:20:02;;;;;;;8.40;6.33;;;;;;;-0.91;56.04;99170.25;5074986;28;41851;-75
2023/04/06 04:22:32;;;;;;;11.33;7.17;;;;;;;-0.92;55.93;99171.13;5075080;28;42248;-75
2023/04/06 04:25:01;;;;;;;8.23;6.50;;;;;;;-0.95;56.06;99171.16;5074982;28;40776;-75
2023/04/06 04:27:31;;;;;;;8.90;6.67;;;;;;;-0.96;55.93;99169.44;5074889;28;41417;-75
2023/04/06 04:29:59;;;;;;;9.03;7.17;;;;;;;-0.98;55.73;99168.56;5074667;28;41779;-75
2023/04/06 04:32:28;;;;;;;11.17;7.13;;;;;;;-1.00;56.06;99170.38;5091831;28;42345;-74
2023/04/06 04:34:57;;;;;;;8.40;6.37;;;;;;;-1.01;56.21;99171.25;5074831;28;39071;-76
2023/04/06 04:37:37;;;;;;;10.40;7.20;;;;;;;-1.03;56.71;99160.84;5075207;28;40741;-75
2023/04/06 04:40:07;;;;;;;11.70;8.13;;;;;;;-1.02;56.87;99161.72;5074476;28;42744;-75
2023/04/06 04:42:44;;;;;;;9.23;7.53;;;;;;;-1.03;56.71;99168.66;5088670;28;42433;-75
2023/04/06 04:45:19;;;;;;;11.10;7.87;;;;;;;-1.10;56.80;99169.56;5088749;28;40028;-74
2023/04/06 04:47:47;;;;;;;9.93;7.13;;;;;;;-1.05;56.72;99177.34;5074511;28;42040;-75
2023/04/06 04:50:17;;;;;;;11.37;8.40;;;;;;;-1.06;56.53;99184.28;5091525;28;42432;-76
2023/04/06 04:52:49;;;;;;;11.17;8.13;;;;;;;-1.09;57.00;99181.69;5092125;28;42895;-75
2023/04/06 04:55:21;;;;;;;9.50;7.70;;;;;;;-1.09;56.72;99179.97;5074698;28;39222;-76
2023/04/06 04:57:54;;;;;;;9.87;7.43;;;;;;;-1.09;56.64;99192.94;5073503;28;41880;-76
2023/04/06 05:00:28;;;;;;;8.00;6.83;;;;;;;-1.10;56.59;99183.44;5074640;28;43162;-75
2023/04/06 05:02:59;;;;;;;9.30;7.83;;;;;;;-1.21;56.71;99172.28;5074185;28;42116;-75
2023/04/06 05:05:36;;;;;;;9.13;8.00;;;;;;;-1.06;56.80;99186.00;5074793;28;38922;-75
2023/04/06 05:08:08;;;;;;;15.10;10.13;;;;;;;-1.03;61.07;99165.19;5091097;28;42595;-76
2023/04/06 05:10:46;;;;;;;15.27;10.80;;;;;;;-0.99;59.95;99174.69;5088359;28;42787;-75
2023/04/06 05:13:14;;;;;;;11.80;9.03;;;;;;;-1.01;59.16;99163.44;5090956;28;42485;-75
2023/04/06 05:15:42;;;;;;;12.10;9.10;;;;;;;-0.90;58.50;99190.16;5074234;28;40231;-76
2023/04/06 05:18:23;;;;;;;10.03;8.13;;;;;;;-0.84;58.27;99195.28;5073956;28;40535;-75
2023/04/06 05:20:51;;;;;;;11.77;8.63;;;;;;;-0.79;57.96;99196.09;5074286;28;42807;-76
2023/04/06 05:23:24;;;;;;;11.63;8.47;;;;;;;-0.74;57.85;99194.28;5088569;28;42292;-76
2023/04/06 05:25:53;;;;;;;13.13;10.17;;;;;;;-0.67;59.04;99185.56;5088154;28;40939;-75
2023/04/06 05:28:23;;;;;;;12.10;9.43;;;;;;;-0.59;58.55;99204.50;5091102;28;41840;-75
2023/04/06 05:30:51;;;;;;;14.03;10.17;;;;;;;-0.51;58.90;99187.09;5074015;28;41914;-76
2023/04/06 05:33:20;;;;;;;13.67;10.33;;;;;;;-0.38;59.63;99183.47;5090979;28;42505;-76
2023/04/06 05:36:07;;;;;;;11.17;9.30;;;;;;;-0.28;58.81;99199.78;5089289;28;40948;-76
2023/04/06 05:38:39;;;;;;;13.97;9.77;;;;;;;-0.20;58.23;99202.28;5074259;28;40668;-75
2023/04/06 05:41:21;;;;;;;12.87;8.60;;;;;;;-0.18;57.84;99196.19;5074131;28;41206;-75
2023/04/06 05:43:49;;;;;;;12.53;9.40;;;;;;;-0.03;57.68;99208.13;5067811;28;41213;-79
2023/04/06 05:46:17;;;;;;;12.50;8.40;;;;;;;-0.23;57.80;99156.34;5068968;28;39058;-79
2023/04/06 05:48:45;;;;;;;12.40;9.33;;;;;;;0.20;57.58;99202.56;5069997;28;40822;-80
2023/04/06 05:51:15;;;;;;;12.73;8.23;;;;;;;0.27;57.25;99189.41;5091028;28;43355;-76
2023/04/06 05:53:51;;;;;;;12.23;7.90;;;;;;;0.51;56.75;99214.22;5068914;28;42488;-79
2023/04/06 05:56:18;;;;;;;10.53;8.50;;;;;;;0.51;56.84;99188.16;5073970;28;39005;-75
2023/04/06 05:58:47;;;;;;;11.80;7.23;;;;;;;0.77;56.68;99216.38;5090412;28;42685;-76
2023/04/06 06:01:19;;;;;;;13.17;8.57;;;;;;;0.86;56.67;99208.41;5073832;28;41638;-79
2023/04/06 06:03:48;;;;;;;12.97;9.40;;;;;;;0.81;57.02;99191.13;5123222;27;42371;-79
2023/04/06 06:06:17;;;;;;;12.10;9.87;;;;;;;0.60;58.39;99129.81;5091010;28;40941;-81
2023/04/06 06:09:06;;;;;;;12.20;9.47;;;;;;;1.21;57.83;99206.91;5089205;28;40666;-78
2023/04/06 06:11:39;;;;;;;13.13;9.80;;;;;;;1.30;57.29;99185.84;5109551;28;42162;-78
2023/04/06 06:14:08;;;;;;;12.50;9.70;;;;;;;1.62;56.97;99209.50;5075841;28;41181;-76
2023/04/06 06:16:39;;;;;;;14.80;9.57;;;;;;;1.76;56.52;99206.63;5090613;28;40389;-77
2023/04/06 06:19:09;;;;;;;11.30;8.80;;;;;;;1.84;56.29;99209.94;5072460;28;40500;-76
2023/04/06 06:21:38;;;;;;;13.50;10.77;;;;;;;1.91;56.84;99205.44;5056634;28;42854;-78
2023/04/06 06:24:11;;;;;;;12.30;10.37;;;;;;;1.98;56.85;99207.03;5088845;28;41444;-78
2023/04/06 06:26:40;;;;;;;12.70;9.73;;;;;;;2.07;57.02;99217.25;5077294;28;39082;-79
2023/04/06 06:29:09;;;;;;;12.27;9.93;;;;;;;2.16;57.45;99214.44;5075997;28;40315;-77
2023/04/06 06:31:40;;;;;;;13.93;10.07;;;;;;;2.22;57.47;99201.25;5076597;28;43199;-78
2023/04/06 06:34:08;;;;;;;17.03;10.30;;;;;;;2.40;57.34;99216.47;5072360;28;41476;-77
2023/04/06 06:36:38;;;;;;;16.53;11.33;;;;;;;2.58;57.69;99214.31;5073918;28;39020;-80
2023/04/06 06:39:10;;;;;;;11.93;9.93;;;;;;;2.73;57.37;99203.44;5072353;28;42258;-78
2023/04/06 06:41:40;;;;;;;12.57;9.40;;;;;;;2.78;56.89;99192.00;5077125;28;42037;-81
2023/04/06 06:44:08;;;;;;;12.60;9.00;;;;;;;2.92;56.88;99189.03;5093317;28;42342;-82
2023/04/06 06:46:36;;;;;;;15.47;10.43;;;;;;;3.20;56.70;99221.41;5077147;28;38967;-78
2023/04/06 06:49:04;;;;;;;13.67;10.30;;;;;;;3.29;56.31;99199.34;5093313;28;40926;-80
2023/04/06 06:51:33;;;;;;;12.73;10.10;;;;;;;3.61;56.18;99217.63;5094234;28;42770;-77
2023/04/06 06:54:02;;;;;;;16.03;11.13;;;;;;;3.87;55.60;99229.09;5093020;28;44731;-79
2023/04/06 06:56:32;;;;;;;13.97;10.73;;;;;;;4.09;55.90;99226.69;5076724;28;41558;-83
2023/04/06 06:59:00;;;;;;;15.50;10.53;;;;;;;4.36;54.79;99225.84;5072718;28;41666;-79
2023/04/06 07:01:28;;;;;;;12.17;9.97;;;;;;;4.56;54.55;99219.97;5073093;28;41933;-79
2023/04/06 07:04:07;;;;;;;13.20;9.93;;;;;;;4.88;53.82;99224.16;5087303;28;43083;-78
2023/04/06 07:06:38;;;;;;;10.53;8.97;;;;;;;5.19;53.56;99218.72;5076381;28;39772;-75
2023/04/06 07:09:09;;;;;;;12.20;9.63;;;;;;;5.58;52.67;99235.66;5093344;28;41701;-77
2023/04/06 07:11:38;;;;;;;12.73;10.10;;;;;;;5.99;51.52;99242.06;5089077;28;43159;-76
2023/04/06 07:14:06;;;;;;;13.03;10.30;;;;;;;6.57;50.90;99242.41;5088283;28;42555;-78
2023/04/06 07:16:34;;;;;;;12.47;9.60;;;;;;;7.24;49.05;99252.78;5076259;28;39118;-77
2023/04/06 07:19:02;;;;;;;11.57;9.03;;;;;;;7.86;47.55;99262.38;5092728;28;41760;-78
2023/04/06 07:21:30;;;;;;;11.17;9.30;;;;;;;8.73;45.44;99272.38;5074986;28;41937;-79
2023/04/06 07:24:00;;;;;;;11.53;9.90;;;;;;;9.64;43.29;99283.59;5092551;28;41721;-76
2023/04/06 07:26:28;;;;;;;12.03;9.17;;;;;;;10.22;41.65;99299.09;5093341;28;41008;-81
2023/04/06 07:28:57;;;;;;;10.93;9.30;;;;;;;10.53;41.85;99305.34;5090037;28;42632;-79
2023/04/06 07:31:27;;;;;;;11.23;9.20;;;;;;;10.63;41.01;99307.41;5076456;28;41846;-81
2023/04/06 07:33:55;;;;;;;12.23;9.73;;;;;;;10.62;42.59;99299.56;5076556;28;41064;-81
2023/04/06 07:36:23;;;;;;;10.63;8.73;;;;;;;10.68;41.59;99307.16;5093584;28;40954;-81
2023/04/06 07:38:52;;;;;;;11.57;9.43;;;;;;;10.89;41.15;99308.59;5076136;28;40845;-81
2023/04/06 07:41:20;;;;;;;11.63;9.63;;;;;;;11.21;41.81;99298.81;5092886;28;41789;-80
2023/04/06 07:43:48;;;;;;;11.80;9.60;;;;;;;11.38;39.94;99290.72;5076251;28;42814;-79
2023/04/06 07:46:18;;;;;;;12.00;9.60;;;;;;;11.71;40.49;99303.78;5093106;28;41304;-81
2023/04/06 07:48:46;;;;;;;11.93;9.00;;;;;;;11.93;39.21;99302.53;5093293;28;41827;-80
2023/04/06 07:51:16;;;;;;;10.33;8.37;;;;;;;12.75;37.97;99326.56;5075771;28;41790;-79
2023/04/06 07:53:45;;;;;;;12.00;9.17;;;;;;;14.13;36.63;99311.09;5076623;28;41398;-81
2023/04/06 07:56:13;;;;;;;10.00;8.90;;;;;;;16.22;34.13;99336.53;5093378;28;40026;-79
2023/04/06 07:58:41;;;;;;;9.63;8.70;;;;;;;18.28;30.48;99358.81;5077433;28;41027;-81
2023/04/06 08:01:09;;;;;;;9.63;8.57;;;;;;;19.42;29.17;99359.38;5096134;28;42918;-79
2023/04/06 08:03:39;;;;;;;8.63;7.83;;;;;;;20.40;27.17;99373.50;5093226;28;42249;-80
2023/04/06 08:06:06;;;;;;;8.73;7.87;;;;;;;21.66;25.38;99381.84;5092644;28;39898;-80
2023/04/06 08:08:34;;;;;;;9.00;8.10;;;;;;;22.00;25.26;99355.06;5076086;28;40915;-80
2023/04/06 08:11:03;;;;;;;8.40;7.60;;;;;;;21.70;25.52;99372.47;5075920;28;41733;-80
2023/04/06 08:13:31;;;;;;;9.20;8.03;;;;;;;21.47;24.46;99379.31;5092849;28;41185;-82
2023/04/06 08:16:00;;;;;;;8.07;7.27;;;;;;;21.37;25.34;99367.75;5092655;28;39805;-82
2023/04/06 08:18:29;;;;;;;8.87;7.97;;;;;;;21.03;25.77;99343.22;5093289;28;41736;-80
2023/04/06 08:20:59;;;;;;;8.60;7.40;;;;;;;21.59;24.46;99366.44;5092857;28;41471;-79
2023/04/06 08:23:27;;;;;;;9.77;8.47;;;;;;;21.69;24.92;99368.06;5092901;28;42247;-82
2023/04/06 08:25:55;;;;;;;8.13;7.43;;;;;;;21.52;25.82;99358.13;5075878;28;38848;-80
2023/04/06 08:28:23;;;;;;;11.70;7.93;;;;;;;22.20;24.90;99344.94;5092830;28;41827;-81
2023/04/06 08:30:51;;;;;;;9.40;8.50;;;;;;;23.59;22.78;99374.34;5093285;28;43433;-82
2023/04/06 08:33:19;;;;;;;8.50;7.70;;;;;;;24.57;22.13;99367.91;5074488;28;41577;-83
2023/04/06 08:35:47;;;;;;;7.73;7.13;;;;;;;25.62;20.95;99371.25;5075860;28;40160;-83
2023/04/06 08:38:17;;;;;;;8.53;7.73;;;;;;;26.60;20.53;99379.44;5076029;28;40704;-82
2023/04/06 08:40:47;;;;;;;8.90;7.73;;;;;;;27.38;19.54;99387.91;5075519;28;42923;-84
2023/04/06 08:43:17;;;;;;;9.33;8.47;;;;;;;27.83;18.93;99377.75;5094239;28;42963;-85
2023/04/06 08:45:46;;;;;;;8.40;7.60;;;;;;;27.72;18.52;99367.38;5093798;28;39758;-83
2023/04/06 08:48:16;;;;;;;8.07;7.37;;;;;;;28.21;18.42;99360.13;5075579;28;41626;-81
2023/04/06 08:50:44;;;;;;;8.67;7.97;;;;;;;29.28;17.82;99385.19;5075426;28;41742;-86
2023/04/06 08:53:13;;;;;;;8.10;7.40;;;;;;;30.29;16.74;99394.28;5093962;28;42264;-80
2023/04/06 08:55:44;;;;;;;8.52;7.82;;;;;;;31.21;15.95;99387.06;5092414;28;38921;-83
2023/04/06 08:58:12;;;;;;;8.52;7.93;;;;;;;32.07;15.18;99391.06;5089507;28;41774;-85
2023/04/06 09:00:41;;;;;;;8.40;7.70;;;;;;;32.78;14.85;99384.41;5093375;28;42846;-84
2023/04/06 09:03:10;;;;;;;8.35;7.63;;;;;;;33.35;14.95;99374.09;5075583;28;41611;-82
2023/04/06 09:05:39;;;;;;;8.80;8.00;;;;;;;34.08;14.21;99379.44;5076522;28;39261;-85
2023/04/06 09:08:07;;;;;;;7.78;7.18;;;;;;;34.62;13.86;99358.25;5076045;28;40869;-83
2023/04/06 09:10:36;;;;;;;7.15;6.55;;;;;;;35.21;13.43;99377.25;5092221;28;42660;-83
2023/04/06 09:13:06;;;;;;;8.30;7.47;;;;;;;35.37;13.54;99356.38;5092081;28;41386;-87
2023/04/06 09:15:35;;;;;;;8.30;7.53;;;;;;;35.91;12.94;99381.72;5091353;28;39283;-82
2023/04/06 09:18:05;;;;;;;8.30;7.32;;;;;;;36.13;12.46;99381.81;5094141;28;20233;-81
2023/04/06 09:20:33;;;;;;;7.50;6.88;;;;;;;35.89;12.88;99362.66;5075616;28;41697;-85
2023/04/06 09:23:01;;;;;;;7.68;6.97;;;;;;;35.99;13.05;99368.34;5074737;28;41397;-85
2023/04/06 09:25:31;;;;;;;7.97;7.38;;;;;;;35.27;12.89;99357.00;5091929;28;39594;-81
2023/04/06 09:28:02;;;;;;;8.55;7.85;;;;;;;33.97;13.41;99355.50;5091646;28;40590;-84
2023/04/06 09:30:32;;;;;;;8.75;8.13;;;;;;;33.16;13.99;99356.75;5089192;28;42761;-85
2023/04/06 09:33:00;;;;;;;8.60;7.90;;;;;;;33.00;13.58;99313.47;5074807;28;41148;-82
2023/04/06 09:35:31;;;;;;;9.60;8.80;;;;;;;33.82;12.74;99337.53;5075024;28;39138;-82
2023/04/06 09:37:59;;;;;;;9.02;8.27;;;;;;;34.31;12.24;99345.66;5075133;28;42116;-83
2023/04/06 09:40:28;;;;;;;9.35;8.65;;;;;;;33.91;13.25;99338.03;5091456;28;41813;-80
2023/04/06 09:42:59;;;;;;;9.10;8.30;;;;;;;33.04;13.40;99337.47;5074778;28;41266;-82
2023/04/06 09:45:28;;;;;;;8.18;7.57;;;;;;;31.95;13.75;99345.44;5074723;28;38835;-81
2023/04/06 09:47:58;;;;;;;9.73;8.90;;;;;;;31.71;14.26;99327.88;5092731;28;41307;-82
2023/04/06 09:50:28;;;;;;;9.88;9.07;;;;;;;32.29;13.60;99336.75;5074685;28;42890;-84
2023/04/06 09:52:59;;;;;;;9.50;8.70;;;;;;;31.64;13.92;99332.59;5074748;28;41943;-86
2023/04/06 09:55:35;;;;;;;10.30;9.30;;;;;;;30.46;13.87;99333.75;5089307;28;39901;-82
2023/04/06 09:58:06;;;;;;;9.07;8.20;;;;;;;30.07;14.75;99302.66;5088568;28;41625;-85
2023/04/06 10:00:42;;;;;;;9.37;8.57;;;;;;;29.92;15.11;99310.22;5092477;28;42885;-84
2023/04/06 10:03:18;;;;;;;10.23;9.33;;;;;;;29.63;14.45;99320.47;5091697;28;42202;-88
2023/04/06 10:05:51;;;;;;;10.07;9.27;;;;;;;29.59;14.55;99310.16;5074535;28;38731;-79
2023/04/06 10:08:22;;;;;;;10.47;9.43;;;;;;;29.72;14.25;99328.44;5089978;28;41596;-85
2023/04/06 10:10:52;;;;;;;10.03;9.10;;;;;;;29.69;14.82;99316.03;5091083;28;41861;-82
2023/04/06 10:13:20;;;;;;;8.80;8.10;;;;;;;30.12;15.28;99294.69;5090973;28;42022;-85
2023/04/06 10:15:49;;;;;;;10.43;9.53;;;;;;;29.91;14.05;99308.53;5090866;28;39882;-83
2023/04/06 10:18:20;;;;;;;9.97;9.07;;;;;;;30.35;14.79;99300.53;5091392;28;42611;-88
2023/04/06 10:20:52;;;;;;;8.70;8.00;;;;;;;31.22;13.46;99317.59;5089857;28;42852;-87
2023/04/06 10:23:27;;;;;;;9.52;8.68;;;;;;;32.35;13.07;99305.69;5089350;28;42444;-83
2023/04/06 10:25:57;;;;;;;9.35;8.55;;;;;;;33.54;12.79;99296.91;5089443;28;40189;-84
2023/04/06 10:28:25;;;;;;;9.20;8.35;;;;;;;34.62;11.37;99308.72;5073961;28;41964;-81
2023/04/06 10:30:58;;;;;;;7.70;7.10;;;;;;;35.41;10.63;99318.16;5074005;28;42267;-84
2023/04/06 10:33:29;;;;;;;7.55;6.75;;;;;;;35.89;10.39;99320.47;5088952;28;42538;-82
2023/04/06 10:35:57;;;;;;;8.35;7.55;;;;;;;35.86;10.27;99310.75;5091129;28;38754;-83
2023/04/06 10:38:35;;;;;;;8.85;8.15;;;;;;;36.49;10.91;99304.09;5085349;28;40916;-81
2023/04/06 10:41:08;;;;;;;8.00;7.30;;;;;;;37.17;10.78;99311.16;5079161;28;41524;-83
2023/04/06 10:43:37;;;;;;;8.32;7.53;;;;;;;37.51;10.50;99311.00;5091844;28;41537;-85
2023/04/06 10:46:07;;;;;;;8.10;7.50;;;;;;;37.92;10.40;99295.69;5092126;28;39727;-87
2023/04/06 10:48:41;;;;;;;8.30;7.70;;;;;;;38.35;10.20;99289.13;5070121;28;42025;-83
2023/04/06 10:51:12;;;;;;;8.25;7.65;;;;;;;38.61;9.82;99290.16;5054040;28;42254;-86
2023/04/06 10:53:43;;;;;;;9.10;8.32;;;;;;;38.56;9.70;99287.38;5083209;28;40994;-86
2023/04/06 10:56:13;;;;;;;8.15;7.45;;;;;;;38.64;10.15;99287.69;5074631;28;38793;-87
2023/04/06 10:58:46;;;;;;;8.63;7.93;;;;;;;38.47;9.48;99289.75;5077093;28;40300;-84
2023/04/06 11:01:16;;;;;;;8.32;7.55;;;;;;;38.26;10.08;99290.72;5094597;28;41629;-81
2023/04/06 11:03:47;;;;;;;8.20;7.53;;;;;;;38.17;9.94;99275.72;5079401;28;42179;-89
2023/04/06 11:06:22;;;;;;;8.23;7.53;;;;;;;37.73;10.72;99273.94;5077637;28;40529;-87
2023/04/06 11:08:51;;;;;;;9.13;8.32;;;;;;;37.16;10.27;99276.34;5077090;28;41502;-88
2023/04/06 11:11:20;;;;;;;10.02;9.02;;;;;;;36.58;10.54;99275.00;5094348;28;43767;-87
2023/04/06 11:13:51;;;;;;;9.80;8.90;;;;;;;36.51;10.18;99251.41;5094271;28;41967;-87
2023/04/06 11:16:20;;;;;;;9.60;8.73;;;;;;;36.76;10.35;99273.88;5077212;28;39045;-84
2023/04/06 11:18:51;;;;;;;8.85;8.15;;;;;;;37.07;10.98;99227.31;5076571;28;40614;-83
2023/04/06 11:21:19;;;;;;;9.00;8.20;;;;;;;38.24;10.63;99262.47;5093850;28;42836;-82
2023/04/06 11:23:48;;;;;;;8.15;7.45;;;;;;;39.01;10.02;99239.69;5093626;28;40956;-83
2023/04/06 11:26:16;;;;;;;8.27;7.57;;;;;;;39.81;10.16;99260.41;5077185;28;39124;-80
2023/04/06 11:28:44;;;;;;;8.40;7.55;;;;;;;40.35;9.59;99260.69;5094444;28;41496;-87
2023/04/06 11:31:12;;;;;;;7.88;7.28;;;;;;;40.26;8.97;99255.94;5093887;28;42099;-81
2023/04/06 11:33:40;;;;;;;7.90;7.30;;;;;;;39.38;10.19;99256.97;5093476;28;42202;-84
2023/04/06 11:36:11;;;;;;;8.55;7.78;;;;;;;38.33;10.12;99253.41;5076681;28;38905;-82
2023/04/06 11:38:41;;;;;;;8.85;8.05;;;;;;;36.82;11.32;99241.66;5093679;28;41757;-82
2023/04/06 11:41:09;;;;;;;9.05;8.27;;;;;;;36.18;11.09;99242.09;5093876;28;43016;-84
2023/04/06 11:43:36;;;;;;;10.27;9.00;;;;;;;35.15;11.28;99248.78;5093084;28;42281;-84
2023/04/06 11:46:07;;;;;;;9.07;8.27;;;;;;;33.40;11.75;99240.50;5095997;28;40704;-84